sensor_id;sensor_type;location;lat;lon;timestamp;pressure;altitude;pressure_sealevel;temperature;humidity
38852;BME280;24605;50.092;9.182;2022-07-24T00:00:58;98299.31;;;20.66;55.67
38852;BME280;24605;50.092;9.182;2022-07-24T00:03:24;98306.69;;;20.64;55.75
38852;BME280;24605;50.092;9.182;2022-07-24T00:05:52;98302.88;;;20.60;55.85
38852;BME280;24605;50.092;9.182;2022-07-24T00:08:19;98311.03;;;20.46;56.68
38852;BME280;24605;50.092;9.182;2022-07-24T00:10:45;98311.63;;;20.48;56.79
38852;BME280;24605;50.092;9.182;2022-07-24T00:13:12;98309.84;;;20.61;55.99
38852;BME280;24605;50.092;9.182;2022-07-24T00:15:38;98308.19;;;20.60;56.18
38852;BME280;24605;50.092;9.182;2022-07-24T00:18:06;98305.00;;;20.70;55.62
38852;BME280;24605;50.092;9.182;2022-07-24T00:20:33;98307.53;;;20.64;55.47
38852;BME280;24605;50.092;9.182;2022-07-24T00:22:59;98306.38;;;20.72;55.61
38852;BME280;24605;50.092;9.182;2022-07-24T00:25:26;98301.25;;;20.59;56.00
38852;BME280;24605;50.092;9.182;2022-07-24T00:27:52;98301.25;;;20.59;56.24
38852;BME280;24605;50.092;9.182;2022-07-24T00:30:19;98295.88;;;20.47;56.34
38852;BME280;24605;50.092;9.182;2022-07-24T00:32:45;98288.69;;;20.47;56.49
38852;BME280;24605;50.092;9.182;2022-07-24T00:35:13;98284.50;;;20.40;56.48
38852;BME280;24605;50.092;9.182;2022-07-24T00:37:40;98298.16;;;20.43;56.82
38852;BME280;24605;50.092;9.182;2022-07-24T00:40:07;98298.00;;;20.57;56.57
38852;BME280;24605;50.092;9.182;2022-07-24T00:42:34;98286.41;;;20.63;56.40
38852;BME280;24605;50.092;9.182;2022-07-24T00:45:00;98285.38;;;20.64;56.19
38852;BME280;24605;50.092;9.182;2022-07-24T00:47:27;98291.53;;;20.64;56.29
38852;BME280;24605;50.092;9.182;2022-07-24T00:49:53;98295.31;;;20.57;56.72
38852;BME280;24605;50.092;9.182;2022-07-24T00:52:21;98297.34;;;20.43;57.25
38852;BME280;24605;50.092;9.182;2022-07-24T00:54:48;98295.94;;;20.40;57.24
38852;BME280;24605;50.092;9.182;2022-07-24T00:57:14;98291.94;;;20.49;56.59
38852;BME280;24605;50.092;9.182;2022-07-24T00:59:41;98284.50;;;20.40;56.68
38852;BME280;24605;50.092;9.182;2022-07-24T01:02:08;98296.47;;;20.49;56.59
38852;BME280;24605;50.092;9.182;2022-07-24T01:04:34;98295.41;;;20.50;56.40
38852;BME280;24605;50.092;9.182;2022-07-24T01:07:01;98303.63;;;20.48;56.38
38852;BME280;24605;50.092;9.182;2022-07-24T01:09:30;98298.84;;;20.39;56.47
38852;BME280;24605;50.092;9.182;2022-07-24T01:11:56;98288.19;;;20.39;56.45
38852;BME280;24605;50.092;9.182;2022-07-24T01:14:24;98299.22;;;20.42;56.68
38852;BME280;24605;50.092;9.182;2022-07-24T01:16:51;98299.44;;;20.22;57.51
38852;BME280;24605;50.092;9.182;2022-07-24T01:19:18;98292.03;;;20.24;57.29
38852;BME280;24605;50.092;9.182;2022-07-24T01:21:47;98293.91;;;20.24;57.02
38852;BME280;24605;50.092;9.182;2022-07-24T01:24:14;98292.50;;;20.21;57.27
38852;BME280;24605;50.092;9.182;2022-07-24T01:26:40;98295.84;;;20.16;57.63
38852;BME280;24605;50.092;9.182;2022-07-24T01:29:07;98295.38;;;20.19;57.50
38852;BME280;24605;50.092;9.182;2022-07-24T01:31:34;98289.78;;;20.09;57.91
38852;BME280;24605;50.092;9.182;2022-07-24T01:34:00;98283.25;;;20.05;57.90
38852;BME280;24605;50.092;9.182;2022-07-24T01:36:27;98294.44;;;19.95;57.79
38852;BME280;24605;50.092;9.182;2022-07-24T01:38:55;98292.78;;;19.94;57.87
38852;BME280;24605;50.092;9.182;2022-07-24T01:41:21;98281.31;;;19.94;58.13
38852;BME280;24605;50.092;9.182;2022-07-24T01:43:48;98286.50;;;19.88;57.94
38852;BME280;24605;50.092;9.182;2022-07-24T01:46:14;98283.19;;;19.93;57.75
38852;BME280;24605;50.092;9.182;2022-07-24T01:48:42;98282.59;;;19.91;57.62
38852;BME280;24605;50.092;9.182;2022-07-24T01:51:09;98285.28;;;19.84;58.03
38852;BME280;24605;50.092;9.182;2022-07-24T01:53:36;98278.78;;;19.80;58.18
38852;BME280;24605;50.092;9.182;2022-07-24T01:56:04;98283.72;;;19.77;58.11
38852;BME280;24605;50.092;9.182;2022-07-24T01:58:31;98291.72;;;19.77;58.26
38852;BME280;24605;50.092;9.182;2022-07-24T02:00:57;98286.41;;;19.77;58.08
38852;BME280;24605;50.092;9.182;2022-07-24T02:03:24;98285.50;;;19.83;57.87
38852;BME280;24605;50.092;9.182;2022-07-24T02:05:50;98287.53;;;19.87;57.42
38852;BME280;24605;50.092;9.182;2022-07-24T02:08:17;98276.09;;;19.87;57.47
38852;BME280;24605;50.092;9.182;2022-07-24T02:10:43;98274.16;;;19.94;57.48
38852;BME280;24605;50.092;9.182;2022-07-24T02:13:11;98279.44;;;20.01;57.32
38852;BME280;24605;50.092;9.182;2022-07-24T02:15:38;98273.41;;;20.06;56.91
38852;BME280;24605;50.092;9.182;2022-07-24T02:18:04;98244.50;;;19.72;57.17
38852;BME280;24605;50.092;9.182;2022-07-24T02:20:31;98282.44;;;20.04;56.99
38852;BME280;24605;50.092;9.182;2022-07-24T02:22:58;98282.09;;;20.01;56.88
38852;BME280;24605;50.092;9.182;2022-07-24T02:25:24;98278.00;;;19.98;56.95
38852;BME280;24605;50.092;9.182;2022-07-24T02:27:51;98273.69;;;19.97;56.95
38852;BME280;24605;50.092;9.182;2022-07-24T02:30:22;98278.28;;;19.90;57.18
38852;BME280;24605;50.092;9.182;2022-07-24T02:32:49;98281.06;;;19.77;57.54
38852;BME280;24605;50.092;9.182;2022-07-24T02:35:15;98269.75;;;19.63;58.87
38852;BME280;24605;50.092;9.182;2022-07-24T02:37:43;98273.13;;;19.51;60.41
38852;BME280;24605;50.092;9.182;2022-07-24T02:40:12;98276.06;;;19.43;61.61
38852;BME280;24605;50.092;9.182;2022-07-24T02:42:39;98270.81;;;19.11;62.51
38852;BME280;24605;50.092;9.182;2022-07-24T02:45:06;98277.63;;;19.25;62.47
38852;BME280;24605;50.092;9.182;2022-07-24T02:47:35;98272.47;;;19.05;63.23
38852;BME280;24605;50.092;9.182;2022-07-24T02:50:02;98275.03;;;18.93;64.92
38852;BME280;24605;50.092;9.182;2022-07-24T02:52:29;98273.78;;;18.96;63.97
38852;BME280;24605;50.092;9.182;2022-07-24T02:54:55;98281.47;;;19.04;62.65
38852;BME280;24605;50.092;9.182;2022-07-24T02:57:22;98280.19;;;19.14;62.16
38852;BME280;24605;50.092;9.182;2022-07-24T02:59:48;98275.19;;;18.99;62.86
38852;BME280;24605;50.092;9.182;2022-07-24T03:02:17;98279.28;;;19.26;62.10
38852;BME280;24605;50.092;9.182;2022-07-24T03:04:45;98275.72;;;19.33;60.20
38852;BME280;24605;50.092;9.182;2022-07-24T03:07:12;98280.94;;;19.46;59.28
38852;BME280;24605;50.092;9.182;2022-07-24T03:09:38;98275.19;;;19.49;58.67
38852;BME280;24605;50.092;9.182;2022-07-24T03:12:06;98288.66;;;19.54;58.97
38852;BME280;24605;50.092;9.182;2022-07-24T03:14:32;98278.13;;;19.41;60.91
38852;BME280;24605;50.092;9.182;2022-07-24T03:16:59;98284.03;;;19.43;60.91
38852;BME280;24605;50.092;9.182;2022-07-24T03:19:25;98282.44;;;19.35;61.97
38852;BME280;24605;50.092;9.182;2022-07-24T03:21:53;98285.75;;;19.31;62.02
38852;BME280;24605;50.092;9.182;2022-07-24T03:24:19;98284.59;;;19.26;61.20
38852;BME280;24605;50.092;9.182;2022-07-24T03:26:46;98281.31;;;19.24;61.04
38852;BME280;24605;50.092;9.182;2022-07-24T03:29:12;98285.06;;;19.42;59.55
38852;BME280;24605;50.092;9.182;2022-07-24T03:31:39;98282.25;;;19.37;59.30
38852;BME280;24605;50.092;9.182;2022-07-24T03:34:05;98278.63;;;19.56;58.32
38852;BME280;24605;50.092;9.182;2022-07-24T03:36:32;98282.03;;;19.64;57.82
38852;BME280;24605;50.092;9.182;2022-07-24T03:39:00;98283.00;;;19.69;57.23
38852;BME280;24605;50.092;9.182;2022-07-24T03:41:26;98286.59;;;19.75;57.06
38852;BME280;24605;50.092;9.182;2022-07-24T03:43:53;98293.88;;;19.86;56.74
38852;BME280;24605;50.092;9.182;2022-07-24T03:46:19;98289.19;;;19.82;56.55
38852;BME280;24605;50.092;9.182;2022-07-24T03:48:46;98290.03;;;19.82;59.15
38852;BME280;24605;50.092;9.182;2022-07-24T03:51:13;98289.91;;;19.70;61.47
38852;BME280;24605;50.092;9.182;2022-07-24T03:53:39;98294.56;;;19.75;61.12
38852;BME280;24605;50.092;9.182;2022-07-24T03:56:09;98294.56;;;19.56;61.11
38852;BME280;24605;50.092;9.182;2022-07-24T03:58:36;98294.13;;;19.60;59.37
38852;BME280;24605;50.092;9.182;2022-07-24T04:01:03;98294.94;;;19.60;58.89
38852;BME280;24605;50.092;9.182;2022-07-24T04:03:29;98295.97;;;19.59;59.63
38852;BME280;24605;50.092;9.182;2022-07-24T04:05:56;98295.09;;;19.65;59.80
38852;BME280;24605;50.092;9.182;2022-07-24T04:08:22;98297.69;;;19.72;59.96
38852;BME280;24605;50.092;9.182;2022-07-24T04:10:49;98292.66;;;19.64;60.59
38852;BME280;24605;50.092;9.182;2022-07-24T04:13:23;98297.16;;;19.63;58.74
38852;BME280;24605;50.092;9.182;2022-07-24T04:15:49;98291.91;;;19.75;59.53
38852;BME280;24605;50.092;9.182;2022-07-24T04:18:16;98298.97;;;19.88;57.31
38852;BME280;24605;50.092;9.182;2022-07-24T04:20:42;98298.44;;;19.79;57.35
38852;BME280;24605;50.092;9.182;2022-07-24T04:23:09;98304.78;;;19.78;56.96
38852;BME280;24605;50.092;9.182;2022-07-24T04:25:35;98298.50;;;19.72;57.25
38852;BME280;24605;50.092;9.182;2022-07-24T04:28:02;98306.94;;;19.69;56.73
38852;BME280;24605;50.092;9.182;2022-07-24T04:30:30;98302.50;;;19.82;56.44
38852;BME280;24605;50.092;9.182;2022-07-24T04:32:56;98305.56;;;20.04;55.38
38852;BME280;24605;50.092;9.182;2022-07-24T04:35:23;98303.72;;;20.23;54.70
38852;BME280;24605;50.092;9.182;2022-07-24T04:37:50;98297.81;;;20.21;54.40
38852;BME280;24605;50.092;9.182;2022-07-24T04:40:17;98296.69;;;20.29;55.00
38852;BME280;24605;50.092;9.182;2022-07-24T04:42:43;98295.03;;;20.46;54.32
38852;BME280;24605;50.092;9.182;2022-07-24T04:45:10;98297.78;;;20.58;53.83
38852;BME280;24605;50.092;9.182;2022-07-24T04:47:39;98298.47;;;20.54;54.15
38852;BME280;24605;50.092;9.182;2022-07-24T04:50:07;98294.63;;;20.80;56.72
38852;BME280;24605;50.092;9.182;2022-07-24T04:52:34;98296.94;;;20.76;58.82
38852;BME280;24605;50.092;9.182;2022-07-24T04:55:00;98298.56;;;20.77;58.00
38852;BME280;24605;50.092;9.182;2022-07-24T04:57:27;98288.94;;;20.76;57.13
38852;BME280;24605;50.092;9.182;2022-07-24T04:59:54;98277.19;;;20.65;56.49
38852;BME280;24605;50.092;9.182;2022-07-24T05:02:20;98287.00;;;20.84;57.26
38852;BME280;24605;50.092;9.182;2022-07-24T05:04:48;98287.94;;;20.89;56.38
38852;BME280;24605;50.092;9.182;2022-07-24T05:07:14;98289.25;;;21.10;56.17
38852;BME280;24605;50.092;9.182;2022-07-24T05:09:41;98293.38;;;21.49;52.81
38852;BME280;24605;50.092;9.182;2022-07-24T05:12:08;98291.44;;;21.68;52.80
38852;BME280;24605;50.092;9.182;2022-07-24T05:14:34;98293.63;;;21.83;51.34
38852;BME280;24605;50.092;9.182;2022-07-24T05:17:01;98299.16;;;21.57;54.32
38852;BME280;24605;50.092;9.182;2022-07-24T05:19:27;98292.09;;;21.87;51.82
38852;BME280;24605;50.092;9.182;2022-07-24T05:21:56;98280.50;;;21.69;53.02
38852;BME280;24605;50.092;9.182;2022-07-24T05:24:23;98247.78;;;21.50;52.98
38852;BME280;24605;50.092;9.182;2022-07-24T05:26:50;98298.38;;;21.81;53.64
38852;BME280;24605;50.092;9.182;2022-07-24T05:29:17;98294.94;;;21.68;54.25
38852;BME280;24605;50.092;9.182;2022-07-24T05:31:44;98298.06;;;21.65;52.76
38852;BME280;24605;50.092;9.182;2022-07-24T05:34:12;98280.66;;;21.74;50.84
38852;BME280;24605;50.092;9.182;2022-07-24T05:36:38;98298.72;;;22.08;50.75
38852;BME280;24605;50.092;9.182;2022-07-24T05:39:07;98301.16;;;21.98;49.97
38852;BME280;24605;50.092;9.182;2022-07-24T05:41:33;98291.41;;;22.03;49.71
38852;BME280;24605;50.092;9.182;2022-07-24T05:44:00;98306.22;;;22.23;49.53
38852;BME280;24605;50.092;9.182;2022-07-24T05:46:26;98303.31;;;22.25;49.99
38852;BME280;24605;50.092;9.182;2022-07-24T05:48:53;98293.47;;;22.13;49.98
38852;BME280;24605;50.092;9.182;2022-07-24T05:51:19;98276.94;;;21.75;52.98
38852;BME280;24605;50.092;9.182;2022-07-24T05:53:46;98311.00;;;22.09;53.87
38852;BME280;24605;50.092;9.182;2022-07-24T05:56:13;98308.69;;;22.01;51.60
38852;BME280;24605;50.092;9.182;2022-07-24T05:58:40;98311.88;;;22.38;51.24
38852;BME280;24605;50.092;9.182;2022-07-24T06:01:06;98302.75;;;22.22;51.44
38852;BME280;24605;50.092;9.182;2022-07-24T06:03:33;98298.41;;;22.45;49.77
38852;BME280;24605;50.092;9.182;2022-07-24T06:05:59;98310.13;;;22.44;49.88
38852;BME280;24605;50.092;9.182;2022-07-24T06:08:26;98310.34;;;22.54;50.07
38852;BME280;24605;50.092;9.182;2022-07-24T06:10:52;98309.47;;;22.66;49.85
38852;BME280;24605;50.092;9.182;2022-07-24T06:13:20;98312.94;;;22.78;50.05
38852;BME280;24605;50.092;9.182;2022-07-24T06:15:47;98268.16;;;22.57;49.71
38852;BME280;24605;50.092;9.182;2022-07-24T06:18:13;98313.28;;;22.99;49.23
38852;BME280;24605;50.092;9.182;2022-07-24T06:20:40;98319.59;;;23.22;48.60
38852;BME280;24605;50.092;9.182;2022-07-24T06:23:07;98311.34;;;22.65;49.56
38852;BME280;24605;50.092;9.182;2022-07-24T06:25:33;98314.03;;;23.11;48.48
38852;BME280;24605;50.092;9.182;2022-07-24T06:28:00;98306.19;;;23.56;47.47
38852;BME280;24605;50.092;9.182;2022-07-24T06:30:28;98304.75;;;23.31;47.81
38852;BME280;24605;50.092;9.182;2022-07-24T06:32:57;98311.72;;;23.49;47.80
38852;BME280;24605;50.092;9.182;2022-07-24T06:35:24;98305.06;;;23.69;47.12
38852;BME280;24605;50.092;9.182;2022-07-24T06:37:52;98308.19;;;23.83;47.13
38852;BME280;24605;50.092;9.182;2022-07-24T06:40:19;98311.50;;;23.90;47.09
38852;BME280;24605;50.092;9.182;2022-07-24T06:42:47;98311.19;;;23.69;47.79
38852;BME280;24605;50.092;9.182;2022-07-24T06:45:14;98308.06;;;23.55;47.83
38852;BME280;24605;50.092;9.182;2022-07-24T06:47:43;98305.38;;;23.55;47.81
38852;BME280;24605;50.092;9.182;2022-07-24T06:50:10;98309.41;;;23.75;47.69
38852;BME280;24605;50.092;9.182;2022-07-24T06:52:37;98308.19;;;23.83;47.72
38852;BME280;24605;50.092;9.182;2022-07-24T06:55:05;98314.25;;;23.95;47.83
38852;BME280;24605;50.092;9.182;2022-07-24T06:57:31;98313.91;;;24.08;46.17
38852;BME280;24605;50.092;9.182;2022-07-24T06:59:59;98300.44;;;24.25;46.73
38852;BME280;24605;50.092;9.182;2022-07-24T07:02:25;98306.00;;;24.41;45.70
38852;BME280;24605;50.092;9.182;2022-07-24T07:04:53;98310.84;;;24.44;46.18
38852;BME280;24605;50.092;9.182;2022-07-24T07:07:19;98304.31;;;24.13;46.59
38852;BME280;24605;50.092;9.182;2022-07-24T07:09:46;98304.88;;;24.37;46.33
38852;BME280;24605;50.092;9.182;2022-07-24T07:12:12;98307.13;;;24.45;46.24
38852;BME280;24605;50.092;9.182;2022-07-24T07:14:39;98298.19;;;24.62;45.68
38852;BME280;24605;50.092;9.182;2022-07-24T07:17:05;98297.63;;;24.60;45.94
38852;BME280;24605;50.092;9.182;2022-07-24T07:19:32;98299.22;;;24.83;45.27
38852;BME280;24605;50.092;9.182;2022-07-24T07:22:00;98253.97;;;24.64;44.75
38852;BME280;24605;50.092;9.182;2022-07-24T07:24:26;98294.41;;;24.58;45.17
38852;BME280;24605;50.092;9.182;2022-07-24T07:26:53;98293.25;;;24.53;45.79
38852;BME280;24605;50.092;9.182;2022-07-24T07:29:19;98295.38;;;24.51;46.87
38852;BME280;24605;50.092;9.182;2022-07-24T07:31:46;98292.25;;;24.60;46.06
38852;BME280;24605;50.092;9.182;2022-07-24T07:34:13;98302.75;;;24.88;45.74
38852;BME280;24605;50.092;9.182;2022-07-24T07:36:39;98307.81;;;24.85;45.45
38852;BME280;24605;50.092;9.182;2022-07-24T07:39:07;98304.03;;;25.08;44.59
38852;BME280;24605;50.092;9.182;2022-07-24T07:41:33;98302.28;;;24.92;45.56
38852;BME280;24605;50.092;9.182;2022-07-24T07:44:00;98297.63;;;25.14;45.17
38852;BME280;24605;50.092;9.182;2022-07-24T07:46:26;98296.09;;;25.24;45.27
38852;BME280;24605;50.092;9.182;2022-07-24T07:48:53;98260.16;;;25.25;44.53
38852;BME280;24605;50.092;9.182;2022-07-24T07:51:20;98290.91;;;25.44;44.05
38852;BME280;24605;50.092;9.182;2022-07-24T07:53:47;98288.22;;;25.44;44.48
38852;BME280;24605;50.092;9.182;2022-07-24T07:56:15;98293.88;;;25.43;44.44
38852;BME280;24605;50.092;9.182;2022-07-24T07:58:42;98301.19;;;25.58;44.21
38852;BME280;24605;50.092;9.182;2022-07-24T08:01:08;98301.72;;;25.55;43.91
38852;BME280;24605;50.092;9.182;2022-07-24T08:03:35;98311.13;;;25.57;44.09
38852;BME280;24605;50.092;9.182;2022-07-24T08:06:02;98296.44;;;25.65;43.16
38852;BME280;24605;50.092;9.182;2022-07-24T08:08:29;98297.28;;;25.76;42.79
38852;BME280;24605;50.092;9.182;2022-07-24T08:10:56;98297.09;;;25.88;42.09
38852;BME280;24605;50.092;9.182;2022-07-24T08:13:24;98298.66;;;25.84;41.35
38852;BME280;24605;50.092;9.182;2022-07-24T08:15:51;98286.75;;;25.64;41.50
38852;BME280;24605;50.092;9.182;2022-07-24T08:18:18;98253.34;;;25.44;42.62
38852;BME280;24605;50.092;9.182;2022-07-24T08:20:44;98299.13;;;25.70;42.84
38852;BME280;24605;50.092;9.182;2022-07-24T08:23:10;98304.53;;;25.75;42.13
38852;BME280;24605;50.092;9.182;2022-07-24T08:25:37;98302.63;;;25.71;40.29
38852;BME280;24605;50.092;9.182;2022-07-24T08:28:04;98276.81;;;25.70;40.05
38852;BME280;24605;50.092;9.182;2022-07-24T08:30:32;98301.69;;;25.92;39.02
38852;BME280;24605;50.092;9.182;2022-07-24T08:32:58;98312.09;;;25.84;40.76
38852;BME280;24605;50.092;9.182;2022-07-24T08:35:25;98305.34;;;25.76;40.59
38852;BME280;24605;50.092;9.182;2022-07-24T08:37:51;98308.13;;;25.96;40.51
38852;BME280;24605;50.092;9.182;2022-07-24T08:40:18;98297.25;;;26.14;40.66
38852;BME280;24605;50.092;9.182;2022-07-24T08:42:45;98299.69;;;26.25;39.80
38852;BME280;24605;50.092;9.182;2022-07-24T08:45:12;98301.56;;;26.20;40.06
38852;BME280;24605;50.092;9.182;2022-07-24T08:47:40;98284.34;;;26.16;40.64
38852;BME280;24605;50.092;9.182;2022-07-24T08:50:08;98292.94;;;26.12;40.60
38852;BME280;24605;50.092;9.182;2022-07-24T08:52:35;98310.66;;;26.08;40.57
38852;BME280;24605;50.092;9.182;2022-07-24T08:55:02;98294.56;;;25.71;41.65
38852;BME280;24605;50.092;9.182;2022-07-24T08:57:29;98287.00;;;25.62;42.87
38852;BME280;24605;50.092;9.182;2022-07-24T08:59:56;98296.97;;;25.67;43.03
38852;BME280;24605;50.092;9.182;2022-07-24T09:02:22;98302.25;;;25.57;42.48
38852;BME280;24605;50.092;9.182;2022-07-24T09:04:58;98301.03;;;25.75;42.92
38852;BME280;24605;50.092;9.182;2022-07-24T09:07:27;98304.00;;;25.73;43.22
38852;BME280;24605;50.092;9.182;2022-07-24T09:09:58;98300.28;;;25.85;42.48
38852;BME280;24605;50.092;9.182;2022-07-24T09:12:25;98303.59;;;26.02;42.52
38852;BME280;24605;50.092;9.182;2022-07-24T09:14:56;98300.25;;;26.27;41.28
38852;BME280;24605;50.092;9.182;2022-07-24T09:17:22;98298.16;;;26.45;40.64
38852;BME280;24605;50.092;9.182;2022-07-24T09:19:52;98296.03;;;26.47;40.59
38852;BME280;24605;50.092;9.182;2022-07-24T09:22:40;98296.50;;;26.28;39.54
38852;BME280;24605;50.092;9.182;2022-07-24T09:25:11;98303.19;;;26.21;39.49
38852;BME280;24605;50.092;9.182;2022-07-24T09:27:39;98292.97;;;26.23;39.32
38852;BME280;24605;50.092;9.182;2022-07-24T09:30:08;98295.41;;;26.24;39.58
38852;BME280;24605;50.092;9.182;2022-07-24T09:32:35;98295.63;;;26.12;39.98
38852;BME280;24605;50.092;9.182;2022-07-24T09:35:04;98297.28;;;26.29;39.29
38852;BME280;24605;50.092;9.182;2022-07-24T09:37:31;98297.06;;;26.41;39.10
38852;BME280;24605;50.092;9.182;2022-07-24T09:40:09;98299.53;;;26.58;38.24
38852;BME280;24605;50.092;9.182;2022-07-24T09:42:36;98300.97;;;26.81;38.10
38852;BME280;24605;50.092;9.182;2022-07-24T09:45:06;98294.25;;;26.79;37.38
38852;BME280;24605;50.092;9.182;2022-07-24T09:47:36;98297.47;;;27.06;37.24
38852;BME280;24605;50.092;9.182;2022-07-24T09:50:15;98292.09;;;27.37;37.25
38852;BME280;24605;50.092;9.182;2022-07-24T09:52:44;98298.56;;;27.62;37.62
38852;BME280;24605;50.092;9.182;2022-07-24T09:55:24;98293.47;;;27.45;37.03
38852;BME280;24605;50.092;9.182;2022-07-24T09:57:51;98288.31;;;27.70;36.72
38852;BME280;24605;50.092;9.182;2022-07-24T10:00:18;98287.19;;;27.86;36.46
38852;BME280;24605;50.092;9.182;2022-07-24T10:02:46;98284.53;;;27.71;35.98
38852;BME280;24605;50.092;9.182;2022-07-24T10:05:15;98289.69;;;27.46;36.34
38852;BME280;24605;50.092;9.182;2022-07-24T10:07:43;98290.50;;;27.21;36.69
38852;BME280;24605;50.092;9.182;2022-07-24T10:10:13;98280.25;;;26.87;37.10
38852;BME280;24605;50.092;9.182;2022-07-24T10:12:40;98283.97;;;26.70;37.84
38852;BME280;24605;50.092;9.182;2022-07-24T10:15:07;98272.41;;;26.70;38.12
38852;BME280;24605;50.092;9.182;2022-07-24T10:20:37;98275.91;;;26.70;38.87
38852;BME280;24605;50.092;9.182;2022-07-24T10:23:06;98270.56;;;27.17;37.71
38852;BME280;24605;50.092;9.182;2022-07-24T10:25:42;98269.75;;;27.32;36.93
38852;BME280;24605;50.092;9.182;2022-07-24T10:28:14;98274.31;;;27.67;36.35
38852;BME280;24605;50.092;9.182;2022-07-24T10:30:50;98267.81;;;27.84;36.22
38852;BME280;24605;50.092;9.182;2022-07-24T10:33:16;98268.09;;;27.72;36.01
38852;BME280;24605;50.092;9.182;2022-07-24T10:35:45;98251.97;;;27.46;36.56
38852;BME280;24605;50.092;9.182;2022-07-24T10:38:19;98264.34;;;27.42;36.81
38852;BME280;24605;50.092;9.182;2022-07-24T10:40:49;98257.06;;;27.74;36.21
38852;BME280;24605;50.092;9.182;2022-07-24T10:43:17;98257.31;;;27.77;36.63
38852;BME280;24605;50.092;9.182;2022-07-24T10:45:44;98255.69;;;27.76;37.28
38852;BME280;24605;50.092;9.182;2022-07-24T10:48:29;98248.75;;;27.29;37.25
38852;BME280;24605;50.092;9.182;2022-07-24T10:51:04;98252.50;;;27.38;37.84
38852;BME280;24605;50.092;9.182;2022-07-24T10:53:46;98250.81;;;27.83;37.21
38852;BME280;24605;50.092;9.182;2022-07-24T10:56:37;98252.09;;;28.12;36.67
38852;BME280;24605;50.092;9.182;2022-07-24T10:59:08;98252.09;;;28.12;36.82
38852;BME280;24605;50.092;9.182;2022-07-24T11:01:37;98244.03;;;27.96;37.12
38852;BME280;24605;50.092;9.182;2022-07-24T11:04:27;98240.16;;;28.28;36.56
38852;BME280;24605;50.092;9.182;2022-07-24T11:07:03;98237.47;;;28.23;35.87
38852;BME280;24605;50.092;9.182;2022-07-24T11:09:53;98239.56;;;28.37;36.17
38852;BME280;24605;50.092;9.182;2022-07-24T11:12:26;98237.13;;;28.35;36.32
38852;BME280;24605;50.092;9.182;2022-07-24T11:14:57;98233.31;;;28.41;35.87
38852;BME280;24605;50.092;9.182;2022-07-24T11:17:45;98223.50;;;28.56;35.51
38852;BME280;24605;50.092;9.182;2022-07-24T11:20:14;98227.94;;;28.41;35.49
38852;BME280;24605;50.092;9.182;2022-07-24T11:22:45;98173.81;;;28.27;35.44
38852;BME280;24605;50.092;9.182;2022-07-24T11:25:17;98228.50;;;28.78;35.19
38852;BME280;24605;50.092;9.182;2022-07-24T11:27:53;98230.22;;;28.58;35.28
38852;BME280;24605;50.092;9.182;2022-07-24T11:30:23;98231.53;;;28.26;36.31
38852;BME280;24605;50.092;9.182;2022-07-24T11:32:50;98213.00;;;28.09;35.74
38852;BME280;24605;50.092;9.182;2022-07-24T11:35:26;98217.34;;;28.50;35.62
38852;BME280;24605;50.092;9.182;2022-07-24T11:37:54;98223.22;;;28.97;34.91
38852;BME280;24605;50.092;9.182;2022-07-24T11:40:21;98214.66;;;29.19;34.37
38852;BME280;24605;50.092;9.182;2022-07-24T11:42:54;98214.19;;;29.12;34.03
38852;BME280;24605;50.092;9.182;2022-07-24T11:45:21;98210.34;;;28.89;34.13
38852;BME280;24605;50.092;9.182;2022-07-24T11:47:47;98207.47;;;29.39;33.61
38852;BME280;24605;50.092;9.182;2022-07-24T11:50:14;98190.28;;;29.78;32.85
38852;BME280;24605;50.092;9.182;2022-07-24T11:52:41;98201.72;;;29.70;33.62
38852;BME280;24605;50.092;9.182;2022-07-24T11:55:11;98192.31;;;29.43;34.25
38852;BME280;24605;50.092;9.182;2022-07-24T11:57:39;98182.16;;;29.78;34.11
38852;BME280;24605;50.092;9.182;2022-07-24T12:00:08;98187.91;;;29.72;33.25
38852;BME280;24605;50.092;9.182;2022-07-24T12:02:36;98181.47;;;29.67;33.98
38852;BME280;24605;50.092;9.182;2022-07-24T12:05:03;98187.38;;;29.50;32.33
38852;BME280;24605;50.092;9.182;2022-07-24T12:07:30;98184.59;;;29.55;32.99
38852;BME280;24605;50.092;9.182;2022-07-24T12:09:58;98180.28;;;29.54;33.31
38852;BME280;24605;50.092;9.182;2022-07-24T12:12:27;98179.38;;;29.83;32.40
38852;BME280;24605;50.092;9.182;2022-07-24T12:15:02;98169.66;;;29.82;33.95
38852;BME280;24605;50.092;9.182;2022-07-24T12:17:30;98174.75;;;30.08;33.46
38852;BME280;24605;50.092;9.182;2022-07-24T12:19:59;98173.66;;;30.09;33.41
38852;BME280;24605;50.092;9.182;2022-07-24T12:22:28;98162.50;;;30.68;32.80
38852;BME280;24605;50.092;9.182;2022-07-24T12:24:56;98171.28;;;30.79;31.81
38852;BME280;24605;50.092;9.182;2022-07-24T12:27:41;98171.13;;;31.03;31.29
38852;BME280;24605;50.092;9.182;2022-07-24T12:30:22;98165.69;;;30.89;30.32
38852;BME280;24605;50.092;9.182;2022-07-24T12:32:58;98172.00;;;30.13;31.47
38852;BME280;24605;50.092;9.182;2022-07-24T12:35:25;98156.44;;;30.05;31.49
38852;BME280;24605;50.092;9.182;2022-07-24T12:37:52;98149.25;;;30.53;30.59
38852;BME280;24605;50.092;9.182;2022-07-24T12:40:31;98146.50;;;30.86;31.02
38852;BME280;24605;50.092;9.182;2022-07-24T12:43:09;98138.00;;;30.92;31.06
38852;BME280;24605;50.092;9.182;2022-07-24T12:45:37;98133.88;;;30.81;31.51
38852;BME280;24605;50.092;9.182;2022-07-24T12:48:16;98127.53;;;31.19;30.84
38852;BME280;24605;50.092;9.182;2022-07-24T12:50:58;98134.28;;;31.35;31.27
38852;BME280;24605;50.092;9.182;2022-07-24T12:53:26;98135.28;;;31.12;30.46
38852;BME280;24605;50.092;9.182;2022-07-24T12:56:05;98135.28;;;31.12;29.96
38852;BME280;24605;50.092;9.182;2022-07-24T12:58:57;98129.13;;;31.48;29.08
38852;BME280;24605;50.092;9.182;2022-07-24T13:01:28;98127.09;;;31.81;28.81
38852;BME280;24605;50.092;9.182;2022-07-24T13:03:59;98125.28;;;32.13;28.20
38852;BME280;24605;50.092;9.182;2022-07-24T13:06:38;98119.00;;;32.41;27.53
38852;BME280;24605;50.092;9.182;2022-07-24T13:09:05;98122.78;;;31.66;29.05